Time;durP1;ratioP1;P1;durP2;ratioP2;P2;SDS_P1;SDS_P2;PMS_P1;PMS_P2;Temp;Humidity;BMP_temperature;BMP_pressure;BME280_temperature;BME280_humidity;BME280_pressure;Samples;Min_cycle;Max_cycle;Signal;HPM_P1;HPM_P2
2023/10/02 00:05:05;;;;;;;24.55;14.05;;;;;;;;;;5017386;28;20064;-69
2023/10/02 00:07:42;;;;;;;27.70;15.80;;;15.10;99.90;;;;;;5017003;28;20045;-70
2023/10/02 00:10:11;;;;;;;26.40;15.27;;;;;;;;;;5004099;28;20060;-70
2023/10/02 00:12:38;;;;;;;28.35;16.10;;;;;;;;;;5015002;28;20464;-70
2023/10/02 00:15:12;;;;;;;30.30;16.30;;;15.00;99.90;;;;;;5015333;28;20115;-69
2023/10/02 00:17:43;;;;;;;29.25;16.05;;;14.90;99.90;;;;;;5020169;28;20105;-70
2023/10/02 00:20:21;;;;;;;27.75;15.05;;;;;;;;;;5013360;28;20366;-69
2023/10/02 00:22:48;;;;;;;25.42;13.68;;;;;;;;;;5010974;28;20045;-68
2023/10/02 00:25:21;;;;;;;29.00;15.57;;;14.80;99.90;;;;;;5015007;28;20052;-68
2023/10/02 00:27:51;;;;;;;26.15;14.50;;;14.70;99.90;;;;;;5016207;28;20609;-69
2023/10/02 00:30:23;;;;;;;27.52;13.85;;;14.60;99.90;;;;;;5016528;28;20045;-70
2023/10/02 00:32:50;;;;;;;30.55;15.82;;;14.70;99.90;;;;;;5009782;28;20724;-70
2023/10/02 00:35:16;;;;;;;25.55;14.63;;;;;;;;;;5007345;28;20052;-71
2023/10/02 00:37:43;;;;;;;25.92;14.07;;;14.60;99.90;;;;;;5015930;28;20049;-70
2023/10/02 00:40:22;;;;;;;26.27;13.90;;;14.60;99.90;;;;;;5015992;28;20033;-70
2023/10/02 00:42:56;;;;;;;24.33;13.68;;;14.60;99.90;;;;;;5016254;28;20049;-69
2023/10/02 00:45:42;;;;;;;26.40;14.80;;;14.30;99.90;;;;;;5014478;28;20072;-70
2023/10/02 00:48:28;;;;;;;27.13;14.50;;;;;;;;;;5014343;28;20132;-70
2023/10/02 00:51:00;;;;;;;30.02;15.65;;;14.40;99.90;;;;;;5014421;28;20049;-70
2023/10/02 00:53:38;;;;;;;27.42;13.65;;;14.50;99.90;;;;;;5014654;28;20045;-69
2023/10/02 00:56:19;;;;;;;27.50;14.45;;;14.50;99.90;;;;;;5014096;28;20128;-70
2023/10/02 00:58:58;;;;;;;30.95;16.55;;;14.50;99.90;;;;;;5014751;28;20053;-70
2023/10/02 01:01:27;;;;;;;35.95;17.13;;;14.70;99.90;;;;;;5015643;28;20131;-70
2023/10/02 01:04:09;;;;;;;32.00;16.48;;;14.80;99.90;;;;;;5016169;28;20057;-69
2023/10/02 01:06:54;;;;;;;32.33;16.42;;;14.80;99.90;;;;;;5016158;28;20377;-70
2023/10/02 01:09:27;;;;;;;25.92;14.82;;;14.90;99.90;;;;;;5014911;28;20049;-69
2023/10/02 01:11:56;;;;;;;26.60;14.65;;;14.90;99.90;;;;;;5009566;28;20045;-69
2023/10/02 01:14:47;;;;;;;30.45;16.45;;;;;;;;;;5009810;28;20045;-71
2023/10/02 01:17:17;;;;;;;34.03;18.42;;;15.00;99.90;;;;;;5015416;28;20282;-69
2023/10/02 01:19:57;;;;;;;28.45;16.17;;;;;;;;;;5015716;28;20089;-69
2023/10/02 01:22:38;;;;;;;32.22;18.10;;;15.20;99.90;;;;;;5015587;28;20076;-70
2023/10/02 01:25:15;;;;;;;35.33;18.13;;;15.30;99.90;;;;;;5014010;28;20045;-69
2023/10/02 01:27:46;;;;;;;31.58;17.02;;;15.30;99.90;;;;;;5014564;28;20434;-70
2023/10/02 01:30:16;;;;;;;28.87;16.17;;;15.20;99.90;;;;;;5004502;28;20041;-69
2023/10/02 01:35:50;;;;;;;33.28;17.58;;;15.40;99.90;;;;;;5014253;28;20056;-69
2023/10/02 01:38:18;;;;;;;33.67;17.80;;;;;;;;;;5014321;28;20107;-70
2023/10/02 01:40:54;;;;;;;29.17;16.90;;;15.60;99.90;;;;;;4995437;28;20049;-70
2023/10/02 01:43:27;;;;;;;34.28;17.83;;;15.60;99.90;;;;;;4997675;28;20131;-69
2023/10/02 01:45:56;;;;;;;32.20;17.42;;;;;;;;;;5013283;28;20041;-70
2023/10/02 01:48:41;;;;;;;32.88;18.40;;;;;;;;;;5015355;28;20586;-69
2023/10/02 01:51:20;;;;;;;32.10;18.73;;;15.60;99.90;;;;;;4998442;28;20121;-71
2023/10/02 01:53:54;;;;;;;33.95;19.13;;;15.60;99.90;;;;;;5009862;28;20856;-70
2023/10/02 01:56:22;;;;;;;33.22;16.75;;;15.60;99.90;;;;;;5013441;28;20397;-70
2023/10/02 01:58:49;;;;;;;30.08;16.58;;;;;;;;;;5013500;28;20067;-69
2023/10/02 02:01:16;;;;;;;26.88;17.27;;;15.50;99.90;;;;;;5013232;28;20120;-71
2023/10/02 02:03:48;;;;;;;29.15;17.42;;;15.50;99.90;;;;;;5013485;28;20873;-69
2023/10/02 02:06:20;;;;;;;35.65;18.50;;;;;;;;;;5013353;28;20057;-69
2023/10/02 02:08:49;;;;;;;36.47;18.50;;;;;;;;;;5013022;28;20064;-70
2023/10/02 02:11:21;;;;;;;32.63;17.33;;;15.50;99.90;;;;;;5014635;28;20114;-70
2023/10/02 02:13:52;;;;;;;32.30;19.33;;;15.60;99.90;;;;;;4998294;28;20041;-69
2023/10/02 02:16:33;;;;;;;32.23;17.17;;;15.60;99.90;;;;;;5014490;28;20123;-69
2023/10/02 02:19:05;;;;;;;32.97;17.83;;;15.60;99.90;;;;;;4998037;28;20140;-69
2023/10/02 02:21:32;;;;;;;35.80;18.42;;;15.60;99.90;;;;;;4988630;28;20137;-70
2023/10/02 02:24:08;;;;;;;31.52;17.77;;;;;;;;;;4998018;28;20048;-69
2023/10/02 02:26:36;;;;;;;35.28;19.40;;;15.60;99.90;;;;;;5015022;28;20776;-69
2023/10/02 02:29:03;;;;;;;32.95;17.33;;;15.60;99.90;;;;;;4998563;28;20536;-70
2023/10/02 02:31:29;;;;;;;32.80;18.08;;;15.60;99.90;;;;;;5014838;28;20755;-69
2023/10/02 02:33:59;;;;;;;28.40;17.30;;;15.70;99.90;;;;;;5015273;28;20064;-70
2023/10/02 02:36:26;;;;;;;34.92;18.60;;;15.70;99.90;;;;;;5014704;28;20053;-70
2023/10/02 02:39:16;;;;;;;31.35;17.38;;;15.60;99.90;;;;;;4998679;28;20132;-69
2023/10/02 02:42:08;;;;;;;28.30;16.90;;;15.60;99.90;;;;;;5014193;28;20056;-69
2023/10/02 02:44:39;;;;;;;27.73;16.45;;;15.50;99.90;;;;;;5031208;28;20555;-69
2023/10/02 02:47:09;;;;;;;33.25;18.35;;;;;;;;;;5008943;28;20448;-70
2023/10/02 02:49:49;;;;;;;31.67;17.27;;;15.50;99.90;;;;;;5018013;28;20455;-70
2023/10/02 02:52:27;;;;;;;35.00;18.83;;;15.50;99.90;;;;;;5014223;28;20133;-70
2023/10/02 02:55:12;;;;;;;33.63;18.25;;;15.30;99.90;;;;;;5009519;28;20073;-70
2023/10/02 02:57:39;;;;;;;31.63;17.77;;;;;;;;;;5014887;28;20037;-70
2023/10/02 03:02:55;;;;;;;34.95;17.40;;;15.20;99.90;;;;;;5007832;28;20449;-69
2023/10/02 03:05:22;;;;;;;33.47;17.17;;;15.20;99.90;;;;;;5014014;28;20081;-71
2023/10/02 03:07:56;;;;;;;33.03;17.20;;;15.20;99.90;;;;;;5013628;28;20056;-69
2023/10/02 03:10:23;;;;;;;35.30;17.35;;;15.20;99.90;;;;;;5013997;28;20061;-70
2023/10/02 03:12:51;;;;;;;30.70;17.45;;;15.20;99.90;;;;;;5014248;28;20048;-70
2023/10/02 03:20:53;;;;;;;30.85;18.40;;;;;;;;;;5013695;28;20058;-70
2023/10/02 03:23:19;;;;;;;31.38;17.98;;;;;;;;;;5015006;28;20049;-70
2023/10/02 03:25:47;;;;;;;32.05;19.13;;;15.30;99.90;;;;;;5010487;28;20045;-69
2023/10/02 03:28:28;;;;;;;37.60;19.70;;;15.30;99.90;;;;;;5017622;28;20052;-69
2023/10/02 03:30:58;;;;;;;30.52;17.73;;;15.10;99.90;;;;;;5017390;28;20048;-69
2023/10/02 03:33:25;;;;;;;33.50;18.20;;;15.30;99.90;;;;;;5017440;28;20049;-69
2023/10/02 03:35:58;;;;;;;28.85;18.10;;;15.30;99.90;;;;;;5001008;28;20378;-69
2023/10/02 03:38:33;;;;;;;32.60;18.40;;;15.40;99.90;;;;;;5017777;28;20053;-70
2023/10/02 03:41:01;;;;;;;30.25;16.73;;;15.30;99.90;;;;;;4997882;28;20540;-69
2023/10/02 03:46:16;;;;;;;35.90;19.15;;;15.30;99.90;;;;;;5013990;28;20053;-69
2023/10/02 03:48:50;;;;;;;38.50;18.83;;;;;;;;;;5016493;28;20067;-69
2023/10/02 03:51:35;;;;;;;37.78;19.77;;;;;;;;;;5016472;28;20092;-69
2023/10/02 03:54:17;;;;;;;37.00;18.45;;;15.20;99.90;;;;;;5016709;28;20045;-70
2023/10/02 03:56:51;;;;;;;31.40;18.08;;;15.20;99.90;;;;;;5016685;28;20720;-70
2023/10/02 03:59:25;;;;;;;33.92;18.65;;;15.10;99.90;;;;;;5016401;28;20056;-70
2023/10/02 04:01:51;;;;;;;39.53;19.75;;;;;;;;;;5000446;28;20046;-69
2023/10/02 04:04:24;;;;;;;34.42;17.58;;;;;;;;;;5018593;28;20046;-71
2023/10/02 04:06:55;;;;;;;33.67;19.52;;;15.00;99.90;;;;;;5017967;28;20045;-70
2023/10/02 04:09:25;;;;;;;33.05;17.25;;;15.00;99.90;;;;;;5017826;28;20083;-70
2023/10/02 04:11:52;;;;;;;39.13;19.73;;;;;;;;;;5017280;28;20041;-70
2023/10/02 04:14:18;;;;;;;34.28;19.05;;;14.90;99.90;;;;;;5017547;28;20052;-70
2023/10/02 04:16:46;;;;;;;35.22;19.55;;;;;;;;;;5016815;28;20081;-70
2023/10/02 04:19:12;;;;;;;38.55;20.13;;;;;;;;;;5007544;28;20069;-70
2023/10/02 04:21:39;;;;;;;41.22;19.05;;;;;;;;;;5000341;28;20046;-70
2023/10/02 04:24:09;;;;;;;36.13;19.55;;;;;;;;;;5015827;28;20128;-69
2023/10/02 04:26:36;;;;;;;39.90;19.13;;;14.60;99.90;;;;;;5015930;28;20037;-70
2023/10/02 04:29:26;;;;;;;37.15;20.88;;;14.50;99.90;;;;;;5016024;28;20037;-69
2023/10/02 04:32:14;;;;;;;39.13;18.85;;;;;;;;;;5015799;28;20120;-69
2023/10/02 04:34:46;;;;;;;35.47;19.02;;;14.50;99.90;;;;;;5014999;28;20131;-71
2023/10/02 04:37:20;;;;;;;37.83;20.83;;;14.50;99.90;;;;;;5009133;28;20891;-70
2023/10/02 04:42:25;;;;;;;42.55;21.45;;;;;;;;;;5016620;28;20060;-70
2023/10/02 04:44:58;;;;;;;39.20;19.95;;;14.50;99.90;;;;;;5016862;28;20095;-71
2023/10/02 04:47:31;;;;;;;39.75;20.15;;;14.50;99.90;;;;;;5012595;28;20402;-69
2023/10/02 04:52:58;;;;;;;37.38;20.85;;;;;;;;;;4977054;28;20211;-69
2023/10/02 04:55:24;;;;;;;44.08;21.75;;;;;;;;;;5000572;28;20045;-70
2023/10/02 04:57:52;;;;;;;39.47;22.00;;;14.50;99.90;;;;;;5016310;28;20077;-70
2023/10/02 05:00:32;;;;;;;45.58;22.38;;;14.50;99.90;;;;;;5016669;28;20119;-68
2023/10/02 05:03:25;;;;;;;43.83;22.52;;;14.50;99.90;;;;;;5014154;28;20491;-69
2023/10/02 05:05:53;;;;;;;;;;;14.60;99.90;;;;;;5013693;28;20584;-68
2023/10/02 05:08:21;;;;;;;45.25;21.75;;;14.50;99.90;;;;;;5005780;28;19941;-69
2023/10/02 05:10:47;;;;;;;46.28;23.05;;;14.50;99.90;;;;;;5015795;28;20696;-68
2023/10/02 05:13:14;;;;;;;44.70;23.98;;;14.60;99.90;;;;;;5015607;28;20045;-69
2023/10/02 05:16:06;;;;;;;44.13;22.23;;;;;;;;;;4997226;28;20912;-70
2023/10/02 05:18:33;;;;;;;43.67;22.23;;;;;;;;;;5014807;28;20068;-69
2023/10/02 05:21:01;;;;;;;46.20;23.15;;;;;;;;;;5011928;28;20049;-71
2023/10/02 05:23:28;;;;;;;43.55;22.23;;;14.60;99.90;;;;;;5014500;28;20137;-68
2023/10/02 05:25:55;;;;;;;47.30;23.80;;;;;;;;;;5014502;28;20045;-70
2023/10/02 05:28:21;;;;;;;45.88;23.38;;;;;;;;;;5014626;28;20046;-69
2023/10/02 05:30:48;;;;;;;41.83;22.73;;;;;;;;;;5014293;28;20056;-69
2023/10/02 05:33:36;;;;;;;43.30;23.27;;;;;;;;;;5014858;28;20835;-68
2023/10/02 05:36:04;;;;;;;47.08;22.70;;;14.40;99.90;;;;;;5016021;28;20084;-68
2023/10/02 05:38:33;;;;;;;41.50;22.75;;;;;;;;;;5015549;28;20081;-69
2023/10/02 05:40:59;;;;;;;44.25;22.58;;;;;;;;;;5015536;28;20056;-68
2023/10/02 05:43:31;;;;;;;44.03;23.27;;;;;;;;;;5006843;28;20052;-69
2023/10/02 05:45:57;;;;;;;43.60;22.60;;;;;;;;;;5015317;28;20098;-69
2023/10/02 05:50:57;;;;;;;46.22;23.83;;;14.20;99.90;;;;;;5008002;28;20058;-70
2023/10/02 05:53:29;;;;;;;41.30;21.48;;;14.30;99.90;;;;;;4992364;28;20427;-71
2023/10/02 05:58:41;;;;;;;43.65;22.58;;;14.30;99.90;;;;;;5009181;28;20054;-69
2023/10/02 06:01:18;;;;;;;44.10;22.98;;;14.30;99.90;;;;;;5016499;28;20049;-71
2023/10/02 06:03:56;;;;;;;48.17;23.42;;;14.40;99.90;;;;;;5015574;28;20704;-70
2023/10/02 06:06:23;;;;;;;44.10;21.52;;;;;;;;;;5007050;28;20049;-69
2023/10/02 06:09:01;;;;;;;46.17;22.92;;;14.50;99.90;;;;;;5012851;28;20053;-70
2023/10/02 06:11:28;;;;;;;47.65;23.92;;;;;;;;;;5014171;28;20073;-69
2023/10/02 06:13:56;;;;;;;40.97;22.35;;;14.60;99.90;;;;;;5014436;28;20135;-71
2023/10/02 06:16:26;;;;;;;44.10;21.33;;;14.60;99.90;;;;;;5014321;28;20133;-70
2023/10/02 06:19:02;;;;;;;42.17;22.40;;;14.60;99.90;;;;;;5014132;28;20167;-70
2023/10/02 06:21:45;;;;;;;45.38;22.67;;;14.70;99.90;;;;;;5013917;28;20731;-70
2023/10/02 06:24:18;;;;;;;50.28;23.65;;;16.30;99.90;;;;;;5014806;28;20107;-70
2023/10/02 06:26:55;;;;;;;43.53;22.25;;;;;;;;;;5015163;28;20111;-69
2023/10/02 06:29:25;;;;;;;44.22;22.88;;;;;;;;;;5014983;28;20120;-68
2023/10/02 06:31:58;;;;;;;36.75;21.55;;;15.10;99.90;;;;;;5014439;28;20037;-68
2023/10/02 06:34:25;;;;;;;42.22;21.63;;;;;;;;;;4998752;28;20136;-69
2023/10/02 06:37:02;;;;;;;40.30;22.17;;;;;;;;;;5012900;28;20046;-69
2023/10/02 06:39:35;;;;;;;38.08;21.20;;;15.40;99.90;;;;;;5012194;28;20060;-69
2023/10/02 06:42:04;;;;;;;37.47;20.65;;;15.50;99.90;;;;;;5012272;28;20152;-70
2023/10/02 06:44:35;;;;;;;38.90;20.58;;;15.60;99.90;;;;;;5013041;28;20045;-69
2023/10/02 06:47:04;;;;;;;38.88;20.55;;;;;;;;;;4991856;28;20041;-70
2023/10/02 06:49:33;;;;;;;35.78;20.48;;;;;;;;;;4993012;28;20072;-70
2023/10/02 06:52:12;;;;;;;35.25;20.02;;;15.90;99.90;;;;;;5012730;28;20051;-70
2023/10/02 06:54:43;;;;;;;35.00;20.48;;;16.00;99.90;;;;;;5006943;28;20040;-70
2023/10/02 06:57:13;;;;;;;32.90;18.83;;;16.20;99.90;;;;;;5011855;28;20061;-69
2023/10/02 06:59:51;;;;;;;35.78;19.58;;;16.30;99.90;;;;;;5011258;28;20033;-70
2023/10/02 07:02:18;;;;;;;33.92;20.70;;;16.40;99.90;;;;;;4998339;28;20112;-69
2023/10/02 07:04:47;;;;;;;33.35;19.15;;;16.40;99.90;;;;;;5013150;28;20073;-70
2023/10/02 07:07:13;;;;;;;29.98;19.35;;;;;;;;;;5014393;28;20437;-69
2023/10/02 07:09:39;;;;;;;31.02;18.00;;;;;;;;;;4995823;28;20042;-70
2023/10/02 07:12:09;;;;;;;31.23;18.30;;;;;;;;;;5014611;28;20045;-69
2023/10/02 07:14:36;;;;;;;33.05;19.30;;;16.50;99.90;;;;;;5013662;28;20615;-68
2023/10/02 07:17:12;;;;;;;29.42;18.73;;;16.50;99.90;;;;;;5007905;28;20156;-69
2023/10/02 07:19:39;;;;;;;30.85;18.92;;;16.70;99.90;;;;;;5013820;28;20053;-69
2023/10/02 07:22:16;;;;;;;31.73;17.98;;;;;;;;;;5006551;28;20065;-69
2023/10/02 07:24:42;;;;;;;31.50;17.63;;;;;;;;;;5018623;28;20087;-70
2023/10/02 07:27:22;;;;;;;34.22;18.17;;;;;;;;;;5017333;28;20044;-71
2023/10/02 07:29:52;;;;;;;30.48;17.77;;;17.00;99.90;;;;;;5002226;28;20134;-70
2023/10/02 07:32:19;;;;;;;28.17;17.25;;;17.00;99.90;;;;;;5018786;28;20089;-71
2023/10/02 07:34:46;;;;;;;29.08;16.90;;;;;;;;;;5018995;28;20076;-70
2023/10/02 07:37:13;;;;;;;31.95;17.95;;;;;;;;;;5009655;28;20396;-69
2023/10/02 07:39:39;;;;;;;30.48;17.17;;;17.00;99.90;;;;;;4958625;28;20053;-70
2023/10/02 07:42:09;;;;;;;29.00;16.75;;;;;;;;;;4967930;28;20057;-71
2023/10/02 07:44:38;;;;;;;30.33;17.25;;;;;;;;;;4958398;28;21764;-71
2023/10/02 07:47:21;;;;;;;32.03;16.95;;;17.10;99.90;;;;;;4979729;28;20450;-71
2023/10/02 07:49:51;;;;;;;27.70;16.83;;;17.30;99.90;;;;;;4961555;28;20740;-73
2023/10/02 07:52:29;;;;;;;29.85;16.88;;;17.40;99.90;;;;;;4967686;28;20046;-71
2023/10/02 07:54:59;;;;;;;33.03;17.70;;;17.50;99.90;;;;;;4980450;28;20155;-71
2023/10/02 07:57:32;;;;;;;27.98;17.33;;;17.60;99.90;;;;;;4969141;28;20214;-69
2023/10/02 08:00:05;;;;;;;27.73;16.80;;;17.80;99.90;;;;;;4986270;28;20058;-72
2023/10/02 08:02:33;;;;;;;28.23;17.35;;;;;;;;;;4971700;28;20139;-71
2023/10/02 08:05:03;;;;;;;31.40;18.05;;;18.00;99.90;;;;;;4998733;28;20067;-71
2023/10/02 08:07:38;;;;;;;28.73;17.27;;;18.10;99.90;;;;;;4988454;28;20048;-71
2023/10/02 08:10:06;;;;;;;27.88;16.23;;;;;;;;;;4986377;28;20578;-71
2023/10/02 08:12:34;;;;;;;29.42;17.33;;;;;;;;;;5001953;28;20049;-73
2023/10/02 08:20:31;;;;;;;28.70;16.88;;;;;;;;;;4993641;28;20057;-71
2023/10/02 08:23:01;;;;;;;27.63;16.40;;;;;;;;;;5005752;28;20523;-70
2023/10/02 08:25:29;;;;;;;31.63;16.40;;;;;;;;;;4996101;28;20061;-71
2023/10/02 08:27:57;;;;;;;27.63;17.05;;;19.60;99.90;;;;;;4986971;28;20155;-71
2023/10/02 08:30:27;;;;;;;26.60;15.68;;;19.80;99.90;;;;;;4982097;28;21792;-71
2023/10/02 08:33:05;;;;;;;26.30;15.02;;;20.20;99.90;;;;;;4984309;28;20053;-70
2023/10/02 08:35:46;;;;;;;31.27;17.73;;;20.60;99.90;;;;;;4991923;28;20098;-72
2023/10/02 08:38:21;;;;;;;28.45;16.45;;;;;;;;;;4985836;28;20049;-71
2023/10/02 08:40:59;;;;;;;27.83;15.80;;;21.40;99.90;;;;;;4999259;28;20084;-71
2023/10/02 08:43:29;;;;;;;27.25;17.27;;;21.50;99.90;;;;;;5016652;28;20067;-70
2023/10/02 08:45:59;;;;;;;26.75;15.38;;;21.80;99.90;;;;;;4991494;28;20057;-71
2023/10/02 08:48:25;;;;;;;26.92;15.38;;;21.80;99.90;;;;;;5004526;28;20072;-70
2023/10/02 08:50:57;;;;;;;24.25;14.30;;;;;;;;;;4989667;28;20045;-71
2023/10/02 08:53:24;;;;;;;26.20;15.30;;;;;;;;;;4994631;28;20084;-71
2023/10/02 08:56:04;;;;;;;29.20;16.08;;;22.00;99.90;;;;;;5004765;28;20176;-71
2023/10/02 08:58:31;;;;;;;25.95;15.45;;;;;;;;;;4985671;28;20060;-70
2023/10/02 09:01:41;;;;;;;26.13;15.25;;;21.90;99.90;;;;;;4984338;28;20452;-70
2023/10/02 09:10:25;;;;;;;26.77;15.88;;;22.40;99.90;;;;;;5006506;28;20204;-70
2023/10/02 09:13:24;;;;;;;27.67;16.33;;;22.40;99.90;;;;;;5002344;28;21253;-70
2023/10/02 09:15:53;;;;;;;23.83;15.48;;;;;;;;;;4984372;28;20064;-70
2023/10/02 09:19:07;;;;;;;25.02;15.85;;;22.20;99.90;;;;;;4980802;28;20488;-70
2023/10/02 09:21:39;;;;;;;26.30;15.57;;;22.10;99.90;;;;;;4992640;28;20052;-71
2023/10/02 09:24:18;;;;;;;27.83;16.05;;;22.00;99.90;;;;;;4990156;28;20057;-71
2023/10/02 09:26:45;;;;;;;27.67;16.05;;;;;;;;;;4995010;28;20255;-70
2023/10/02 09:29:12;;;;;;;25.33;15.52;;;;;;;;;;4999110;28;20072;-70
2023/10/02 09:31:39;;;;;;;32.33;16.20;;;21.80;99.90;;;;;;5000102;28;20492;-71
2023/10/02 09:34:11;;;;;;;26.60;15.75;;;;;;;;;;4998826;28;20684;-70
2023/10/02 09:36:51;;;;;;;32.08;17.63;;;;;;;;;;4980942;28;20049;-72
2023/10/02 09:39:36;;;;;;;23.10;14.60;;;;;;;;;;4981778;28;20041;-70
2023/10/02 09:42:09;;;;;;;26.25;15.55;;;22.40;99.90;;;;;;4991216;28;20057;-71
2023/10/02 09:44:45;;;;;;;25.95;15.02;;;22.50;99.90;;;;;;4983007;28;20138;-70
2023/10/02 09:47:12;;;;;;;24.77;14.80;;;;;;;;;;5008479;28;20053;-71
2023/10/02 09:50:10;;;;;;;27.33;15.15;;;22.50;99.90;;;;;;4980933;28;20053;-71
2023/10/02 09:52:57;;;;;;;30.00;15.32;;;23.10;99.90;;;;;;5003367;28;20064;-70
2023/10/02 09:55:34;;;;;;;25.83;16.40;;;22.70;99.90;;;;;;5019237;28;20061;-71
2023/10/02 09:58:03;;;;;;;28.40;16.80;;;23.30;99.90;;;;;;4993905;28;20075;-72
2023/10/02 10:00:41;;;;;;;26.45;16.35;;;;;;;;;;4996879;28;20080;-70
2023/10/02 10:03:30;;;;;;;27.40;17.05;;;23.50;99.90;;;;;;4982900;28;20536;-70
2023/10/02 10:06:08;;;;;;;27.70;17.33;;;23.30;99.90;;;;;;5001214;28;20131;-71
2023/10/02 10:11:43;;;;;;;31.80;18.80;;;22.90;99.90;;;;;;4997555;28;20088;-71
2023/10/02 10:14:37;;;;;;;29.15;18.45;;;22.80;99.90;;;;;;4995631;28;20060;-71
2023/10/02 10:18:12;;;;;;;31.08;17.67;;;22.40;99.90;;;;;;5000468;28;20218;-70
2023/10/02 10:20:22;;;;;;;26.63;15.00;;;;;;;;;;4992263;28;20794;-71
2023/10/02 10:22:51;;;;;;;30.90;16.50;;;23.30;99.90;;;;;;4994571;28;20049;-70
2023/10/02 10:27:54;;;;;;;27.33;16.60;;;22.90;99.90;;;;;;4992167;28;20558;-71
2023/10/02 10:30:39;;;;;;;26.13;16.75;;;;;;;;;;4997302;28;20535;-70
2023/10/02 10:35:35;;;;;;;23.40;15.73;;;22.80;99.90;;;;;;4999642;28;20144;-70
2023/10/02 10:38:36;;;;;;;25.50;16.55;;;23.30;99.90;;;;;;4997627;28;20049;-70
2023/10/02 10:41:31;;;;;;;26.98;16.52;;;22.90;99.90;;;;;;4972632;28;20050;-72
2023/10/02 10:43:59;;;;;;;28.67;16.27;;;22.80;99.90;;;;;;4998029;28;20134;-70
2023/10/02 10:46:31;;;;;;;27.88;16.50;;;23.20;99.90;;;;;;4994885;28;20316;-71
2023/10/02 10:49:15;;;;;;;;;;;23.20;99.90;;;;;;4969633;28;20068;-71
2023/10/02 10:51:42;;;;;;;28.60;14.68;;;;;;;;;;4998364;28;19978;-71
2023/10/02 10:54:30;;;;;;;35.08;19.15;;;23.20;99.90;;;;;;4996813;28;20068;-72
2023/10/02 10:57:19;;;;;;;33.30;17.48;;;23.10;99.90;;;;;;4983861;28;20135;-72
2023/10/02 10:59:45;;;;;;;33.30;18.27;;;22.90;99.90;;;;;;5021913;28;20069;-72
2023/10/02 11:02:16;;;;;;;35.33;18.63;;;;;;;;;;4984783;28;20060;-72
2023/10/02 11:04:47;;;;;;;32.08;17.77;;;23.30;99.90;;;;;;4972928;28;20049;-72
2023/10/02 11:07:21;;;;;;;34.93;18.10;;;23.40;99.90;;;;;;4985398;28;20045;-72
2023/10/02 11:10:15;;;;;;;27.77;17.50;;;23.30;99.90;;;;;;4969354;28;20564;-72
2023/10/02 11:12:57;;;;;;;32.65;18.33;;;22.50;99.90;;;;;;5018907;28;20061;-72
2023/10/02 11:18:20;;;;;;;30.25;18.00;;;23.00;99.90;;;;;;4991961;28;20045;-71
2023/10/02 11:20:52;;;;;;;28.20;16.52;;;22.80;99.90;;;;;;4976982;28;20049;-72
2023/10/02 11:23:29;;;;;;;;;;;23.10;99.90;;;;;;5013384;28;20129;-72
2023/10/02 11:25:56;;;;;;;26.77;16.02;;;;;;;;;;4982467;28;19968;-72
2023/10/02 11:28:32;;;;;;;27.48;16.75;;;22.90;99.90;;;;;;4969342;28;20150;-72
2023/10/02 11:31:35;;;;;;;26.10;15.35;;;23.00;99.90;;;;;;4997657;28;20045;-73
2023/10/02 11:34:11;;;;;;;26.67;15.95;;;23.00;99.90;;;;;;5001656;28;20670;-72
2023/10/02 11:36:52;;;;;;;29.10;16.63;;;23.00;99.90;;;;;;4991661;28;20652;-72
2023/10/02 11:39:19;;;;;;;25.85;16.20;;;22.90;99.90;;;;;;4999136;28;20192;-71
2023/10/02 11:41:46;;;;;;;27.77;16.85;;;23.00;99.90;;;;;;4997545;28;20088;-71
2023/10/02 11:44:13;;;;;;;27.30;17.23;;;23.00;99.90;;;;;;4997820;28;20049;-72
2023/10/02 11:46:40;;;;;;;27.88;16.65;;;19.00;99.90;;;;;;5002626;28;20048;-73
2023/10/02 11:49:07;;;;;;;28.92;16.55;;;23.10;99.90;;;;;;4975634;28;20163;-72
2023/10/02 11:51:33;;;;;;;26.95;16.10;;;23.10;99.90;;;;;;4998086;28;20057;-72
2023/10/02 11:54:09;;;;;;;29.60;16.92;;;23.00;99.90;;;;;;4980186;28;20076;-72
2023/10/02 11:56:35;;;;;;;29.33;17.23;;;23.00;99.90;;;;;;5004293;28;20486;-71
2023/10/02 11:59:02;;;;;;;33.28;16.02;;;22.90;99.90;;;;;;4999827;28;20170;-72
2023/10/02 12:01:29;;;;;;;27.70;16.73;;;22.60;99.90;;;;;;4983952;28;20056;-72
2023/10/02 12:03:57;;;;;;;27.73;16.58;;;22.80;99.90;;;;;;5011514;28;21250;-72
2023/10/02 12:06:28;;;;;;;28.83;15.68;;;22.20;99.90;;;;;;4998999;28;20069;-73
2023/10/02 12:09:01;;;;;;;28.07;16.57;;;22.80;99.90;;;;;;4985007;28;20875;-72
2023/10/02 12:11:28;;;;;;;26.20;16.95;;;22.60;99.90;;;;;;4975556;28;20147;-72
2023/10/02 12:13:54;;;;;;;30.08;17.15;;;22.50;99.90;;;;;;4999009;28;20056;-72
2023/10/02 12:16:23;;;;;;;29.55;18.60;;;22.70;99.90;;;;;;4992385;28;20110;-71
2023/10/02 12:18:53;;;;;;;27.75;17.75;;;25.50;99.90;;;;;;4998255;28;20053;-71
2023/10/02 12:21:21;;;;;;;29.45;17.30;;;22.70;99.90;;;;;;4983700;28;20053;-71
2023/10/02 12:23:50;;;;;;;30.70;17.98;;;22.50;99.90;;;;;;4982704;28;20033;-72
2023/10/02 12:26:17;;;;;;;35.80;18.60;;;22.80;99.90;;;;;;5000478;28;20462;-72
2023/10/02 12:28:44;;;;;;;27.40;17.98;;;22.60;99.90;;;;;;4988080;28;20057;-71
2023/10/02 12:31:14;;;;;;;28.65;18.23;;;22.50;99.90;;;;;;4974127;28;20302;-73
2023/10/02 12:33:42;;;;;;;25.13;17.10;;;22.60;99.90;;;;;;4975992;28;20051;-72
2023/10/02 12:36:17;;;;;;;33.15;18.40;;;22.60;99.90;;;;;;4982105;28;20064;-74
2023/10/02 12:38:48;;;;;;;28.10;16.88;;;22.70;99.90;;;;;;4996442;28;22053;-72
2023/10/02 12:41:14;;;;;;;;;;;22.70;99.90;;;;;;4996422;28;20799;-72
2023/10/02 12:43:42;;;;;;;31.63;17.20;;;22.70;99.90;;;;;;4980807;28;20056;-72
2023/10/02 12:46:16;;;;;;;26.95;15.95;;;22.50;99.90;;;;;;4976711;28;20619;-71
2023/10/02 12:48:48;;;;;;;28.65;16.45;;;22.70;99.90;;;;;;4982663;28;20125;-72
2023/10/02 12:51:15;;;;;;;31.88;17.02;;;22.70;99.90;;;;;;4977416;28;20528;-72
2023/10/02 12:53:42;;;;;;;25.77;15.68;;;23.90;99.90;;;;;;4980950;28;20049;-73
2023/10/02 12:56:15;;;;;;;30.98;17.45;;;22.70;99.90;;;;;;4983077;28;20463;-73
2023/10/02 12:58:41;;;;;;;29.00;16.08;;;22.90;99.90;;;;;;5000207;28;20071;-72
2023/10/02 13:01:13;;;;;;;25.77;15.30;;;22.80;99.90;;;;;;5000467;28;20156;-71
2023/10/02 13:03:42;;;;;;;;;;;22.80;99.90;;;;;;4998232;28;20060;-72
2023/10/02 13:06:11;;;;;;;30.20;17.33;;;22.80;99.90;;;;;;4999511;28;19991;-73
2023/10/02 13:08:41;;;;;;;26.52;16.25;;;22.90;99.90;;;;;;4998486;28;20076;-71
2023/10/02 13:11:12;;;;;;;28.50;17.48;;;23.30;99.90;;;;;;4993083;28;21263;-72
2023/10/02 13:13:44;;;;;;;26.83;16.65;;;22.90;99.90;;;;;;4989340;28;20048;-71
2023/10/02 13:16:13;;;;;;;26.55;16.30;;;22.90;99.90;;;;;;4996592;28;20100;-71
2023/10/02 13:18:40;;;;;;;32.15;16.67;;;22.90;99.90;;;;;;4981926;28;20235;-71
2023/10/02 13:21:19;;;;;;;28.55;15.18;;;23.10;99.90;;;;;;4987217;28;20191;-72
2023/10/02 13:23:47;;;;;;;27.05;14.55;;;22.90;99.90;;;;;;4994478;28;20072;-72
2023/10/02 13:26:16;;;;;;;26.15;16.08;;;22.90;99.90;;;;;;4982160;28;20072;-72
2023/10/02 13:28:52;;;;;;;27.02;15.05;;;22.70;99.90;;;;;;4999648;28;20037;-72
2023/10/02 13:31:19;;;;;;;29.10;16.08;;;22.80;99.90;;;;;;4985182;28;20132;-72
2023/10/02 13:33:51;;;;;;;27.02;15.45;;;22.90;99.90;;;;;;4990428;28;20049;-73
2023/10/02 13:36:22;;;;;;;27.33;15.70;;;22.70;99.90;;;;;;5002132;28;20404;-72
2023/10/02 13:38:54;;;;;;;24.13;15.32;;;22.70;99.90;;;;;;5003193;28;21062;-72
2023/10/02 13:41:21;;;;;;;26.02;15.07;;;22.80;99.90;;;;;;4980107;28;20057;-73
2023/10/02 13:43:48;;;;;;;29.65;17.10;;;22.60;99.90;;;;;;4989579;28;20115;-73
2023/10/02 13:46:16;;;;;;;28.13;16.08;;;23.00;99.90;;;;;;4996376;28;20049;-73
2023/10/02 13:48:43;;;;;;;30.27;17.05;;;22.60;99.90;;;;;;4978549;28;20069;-73
2023/10/02 13:51:10;;;;;;;27.52;16.20;;;22.80;99.90;;;;;;4998593;28;20558;-72
2023/10/02 13:53:37;;;;;;;24.73;16.15;;;22.50;99.90;;;;;;4988459;28;20832;-73
2023/10/02 13:56:09;;;;;;;26.15;16.50;;;22.50;99.90;;;;;;4991562;28;20450;-72
2023/10/02 13:58:39;;;;;;;28.10;15.77;;;24.80;99.90;;;;;;4982866;28;20392;-72
2023/10/02 14:01:08;;;;;;;28.52;15.80;;;22.50;99.90;;;;;;4994055;28;20144;-72
2023/10/02 14:03:36;;;;;;;26.92;16.52;;;22.50;99.90;;;;;;4997163;28;20088;-72
2023/10/02 14:06:06;;;;;;;29.17;16.48;;;22.50;99.90;;;;;;4995266;28;20483;-73
2023/10/02 14:08:35;;;;;;;28.45;15.90;;;22.40;99.90;;;;;;5000264;28;20056;-72
2023/10/02 14:11:04;;;;;;;27.40;16.15;;;22.50;99.90;;;;;;5000101;28;20492;-73
2023/10/02 14:13:31;;;;;;;28.20;14.45;;;22.20;99.90;;;;;;4967169;28;20169;-72
2023/10/02 14:16:07;;;;;;;25.55;13.73;;;22.50;99.90;;;;;;4974386;28;20186;-73